Terminal Aerodrome Forecast
Issued by NWS

Home | Current Version | Previous Version | Text Only | Print | Product List | Glossary On
Versions: 1 2 3 4 5 6 7 8 9 10 11 12 13 14 15 16 17 18 19 20 21 22 23 24 25 26 27 28 29 30 31 32 33 34 35 36 37 38 39 40
000
FTUS43 KGRB 282300 RRA
TAFRHI
TAF
KRHI 282343Z 2900/2924 13007KT 6SM -SN BR OVC050
      TEMPO 2902/2906 4SM -SNPL BR BKN012
     FM290600 14005KT 3SM BR BKN012 OVC090
     FM291600 19006KT 5SM HZ BKN015
     FM292000 22007KT P6SM SCT020=

USA.gov is the U.S. government's official web portal to all federal, state and local government web resources and services.